Eskisehir, Turkey
Current Conditions -  °F | °C
As of 11:50 PM on Saturday 25 Oct 2014 (Local Time) from LTBY Reporting Station
Broken Clouds Broken Clouds  
Wind Chill: 45°   Ceiling: 10000
Heat Index: 45°   Visibility: 6mi
Dew Point: 45°   Wind: 1mph
Humidity: 100%   Direction: NA
Pressure: 29.97"   Gusts: NA
Location:  39.79°N, 30.52°E
Report Text: LTBY 252050Z VRB01KT 9999 SCT035 BKN100 07/07 Q1015
Loading
Personal Weather Stations






























Interactive Weather Map
Tropical Storm Tracking
New forecast layout! Learn more

10-Day Weather Forecast

Advertisements
Track Severe Weather on mobile